createdAt,value
2018-07-09T00:03:58.910Z,49.42
2018-07-09T00:08:02.390Z,50.27
2018-07-09T00:12:06.049Z,50.13
2018-07-09T00:16:09.462Z,50.39
2018-07-09T00:20:13.028Z,50.35
2018-07-09T00:24:16.514Z,50.62
2018-07-09T00:28:20.763Z,49.99
2018-07-09T00:32:24.452Z,50.77
2018-07-09T00:36:28.036Z,50.90
2018-07-09T00:40:31.594Z,50.22
2018-07-09T00:44:35.387Z,50.85
2018-07-09T00:48:38.818Z,50.75
2018-07-09T00:52:42.871Z,51.02
2018-07-09T00:56:47.181Z,50.63
2018-07-09T01:00:50.790Z,50.87
2018-07-09T01:04:54.262Z,50.96
2018-07-09T01:08:57.798Z,50.75
2018-07-09T01:13:01.320Z,51.00
2018-07-09T01:17:05.231Z,51.08
2018-07-09T01:21:11.622Z,50.83
2018-07-09T01:25:15.327Z,50.72
2018-07-09T01:29:19.151Z,51.21
2018-07-09T01:33:22.866Z,51.15
2018-07-09T01:37:26.688Z,51.11
2018-07-09T01:41:30.378Z,51.49
2018-07-09T01:45:33.861Z,51.51
2018-07-09T01:49:37.623Z,51.37
2018-07-09T01:53:41.192Z,51.96
2018-07-09T01:57:44.970Z,52.06
2018-07-09T02:01:48.723Z,51.95
2018-07-09T02:05:52.446Z,52.25
2018-07-09T02:09:55.958Z,52.53
2018-07-09T02:13:59.673Z,52.63
2018-07-09T02:18:03.200Z,52.69
2018-07-09T02:22:06.783Z,52.68
2018-07-09T02:26:10.283Z,53.00
2018-07-09T02:30:14.038Z,53.12
2018-07-09T02:34:17.562Z,53.00
2018-07-09T02:38:21.235Z,52.83
2018-07-09T02:42:24.791Z,52.79
2018-07-09T02:46:28.519Z,53.23
2018-07-09T02:50:32.099Z,53.03
2018-07-09T02:54:35.816Z,53.40
2018-07-09T02:58:39.209Z,53.70
2018-07-09T03:02:42.827Z,53.52
2018-07-09T03:06:46.464Z,53.78
2018-07-09T03:10:51.210Z,53.71
2018-07-09T03:14:54.828Z,54.02
2018-07-09T03:18:58.369Z,54.01
2018-07-09T03:23:01.938Z,53.98
2018-07-09T03:27:05.818Z,54.00
2018-07-09T03:31:10.477Z,54.19
2018-07-09T03:35:14.032Z,54.46
2018-07-09T03:39:18.558Z,54.36
2018-07-09T03:43:22.073Z,54.52
2018-07-09T03:47:25.543Z,54.72
2018-07-09T03:51:29.137Z,54.48
2018-07-09T03:55:32.666Z,54.79
2018-07-09T03:59:36.178Z,54.56
2018-07-09T04:03:39.685Z,54.70
2018-07-09T04:07:43.466Z,54.77
2018-07-09T04:11:46.913Z,54.77
2018-07-09T04:15:50.558Z,54.96
2018-07-09T04:19:54.063Z,54.74
2018-07-09T04:23:57.614Z,54.85
2018-07-09T04:28:01.392Z,54.43
2018-07-09T04:32:04.978Z,55.02
2018-07-09T04:36:09.028Z,54.74
2018-07-09T04:40:12.571Z,55.00
2018-07-09T04:44:16.079Z,54.33
2018-07-09T04:48:19.623Z,54.87
2018-07-09T04:52:23.082Z,54.29
2018-07-09T04:56:27.073Z,54.16
2018-07-09T05:00:30.565Z,54.21
2018-07-09T05:04:34.190Z,54.31
2018-07-09T05:08:37.690Z,53.73
2018-07-09T05:12:41.236Z,54.12
2018-07-09T05:16:44.675Z,53.21
2018-07-09T05:20:48.264Z,53.18
2018-07-09T05:24:51.879Z,53.24
2018-07-09T05:28:55.465Z,53.89
2018-07-09T05:32:58.930Z,52.60
2018-07-09T05:37:04.885Z,53.67
2018-07-09T05:41:08.544Z,52.89
2018-07-09T05:45:13.153Z,52.47
2018-07-09T05:49:16.643Z,52.16
2018-07-09T05:53:20.160Z,51.84
2018-07-09T05:57:23.682Z,50.87
2018-07-09T06:01:27.277Z,51.27
2018-07-09T06:05:30.902Z,51.49
2018-07-09T06:09:34.469Z,50.33
2018-07-09T06:13:38.113Z,50.38
2018-07-09T06:17:42.779Z,50.02
2018-07-09T06:21:46.455Z,50.31
2018-07-09T06:25:51.099Z,49.83
2018-07-09T06:29:54.545Z,49.47
2018-07-09T06:33:58.158Z,47.76
2018-07-09T06:38:01.719Z,47.70
2018-07-09T06:42:05.295Z,47.80
2018-07-09T06:46:09.212Z,46.49
2018-07-09T06:50:15.984Z,47.53
2018-07-09T06:54:19.444Z,46.54
2018-07-09T06:58:22.933Z,46.17
2018-07-09T07:02:26.468Z,46.89
2018-07-09T07:06:30.078Z,47.53
2018-07-09T07:10:33.509Z,47.59
2018-07-09T07:14:37.154Z,47.22
2018-07-09T07:18:40.653Z,45.85
2018-07-09T07:22:44.254Z,46.52
2018-07-09T07:26:47.774Z,46.65
2018-07-09T07:30:53.367Z,48.19
2018-07-09T07:34:56.914Z,45.66
2018-07-09T07:39:00.458Z,47.29
2018-07-09T07:43:03.850Z,46.16
2018-07-09T07:47:07.668Z,45.26
2018-07-09T07:51:12.065Z,45.17
2018-07-09T07:55:15.585Z,46.06
2018-07-09T07:59:19.014Z,46.48
2018-07-09T08:03:22.627Z,44.55
2018-07-09T08:07:26.052Z,44.75
2018-07-09T08:11:47.723Z,46.81
2018-07-09T08:15:33.458Z,44.93
2018-07-09T08:19:37.277Z,45.03
2018-07-09T08:23:40.963Z,45.36
2018-07-09T08:27:49.080Z,43.94
2018-07-09T08:31:52.588Z,43.71
2018-07-09T08:35:56.074Z,45.78
2018-07-09T08:39:59.486Z,43.68
2018-07-09T08:44:03.194Z,42.61
2018-07-09T08:48:06.665Z,43.37
2018-07-09T08:52:10.250Z,43.80
2018-07-09T08:56:13.713Z,42.49
2018-07-09T09:00:17.602Z,41.92
2018-07-09T09:04:21.051Z,40.22
2018-07-09T09:08:24.569Z,39.92
2018-07-09T09:12:28.048Z,42.47
2018-07-09T09:16:31.613Z,41.08
2018-07-09T09:20:35.265Z,39.42
2018-07-09T09:24:38.885Z,42.48
2018-07-09T09:28:42.737Z,40.40
2018-07-09T09:32:47.304Z,41.39
2018-07-09T09:36:50.721Z,40.86
2018-07-09T09:40:54.327Z,40.44
2018-07-09T09:44:57.728Z,40.40
2018-07-09T09:49:01.383Z,38.74
2018-07-09T09:53:04.848Z,39.33
2018-07-09T09:57:08.526Z,40.39
2018-07-09T10:01:11.951Z,40.00
2018-07-09T10:05:15.591Z,39.50
2018-07-09T10:09:19.039Z,39.60
2018-07-09T10:13:22.595Z,40.63
2018-07-09T10:17:26.043Z,39.92
2018-07-09T10:21:29.622Z,40.59
2018-07-09T10:25:33.077Z,40.21
2018-07-09T10:29:36.906Z,38.66
2018-07-09T10:33:40.331Z,38.94
2018-07-09T10:37:45.267Z,39.10
2018-07-09T10:41:48.676Z,39.65
2018-07-09T10:45:53.322Z,39.21
2018-07-09T10:49:57.139Z,39.17
2018-07-09T10:54:00.641Z,38.11
2018-07-09T10:58:04.123Z,39.52
2018-07-09T11:02:07.764Z,37.61
2018-07-09T11:06:11.475Z,37.52
2018-07-09T11:10:15.294Z,38.10
2018-07-09T11:14:19.173Z,37.29
2018-07-09T11:18:22.835Z,38.13
2018-07-09T11:22:26.280Z,37.25
2018-07-09T11:26:32.181Z,37.24
2018-07-09T11:30:35.681Z,36.76
2018-07-09T11:34:39.234Z,37.30
2018-07-09T11:38:43.153Z,37.26
2018-07-09T11:42:48.816Z,38.08
2018-07-09T11:46:52.298Z,36.78
2018-07-09T11:50:55.871Z,36.13
2018-07-09T11:54:59.343Z,36.56
2018-07-09T11:59:06.095Z,34.98
2018-07-09T12:03:09.840Z,36.83
2018-07-09T12:07:13.633Z,34.98
2018-07-09T12:11:17.123Z,35.54
2018-07-09T12:15:25.254Z,36.63
2018-07-09T12:19:28.682Z,36.82
2018-07-09T12:23:32.213Z,36.66
2018-07-09T12:27:36.111Z,38.94
2018-07-09T12:31:40.617Z,37.36
2018-07-09T12:35:44.206Z,37.80
2018-07-09T12:39:48.898Z,38.76
2018-07-09T12:43:52.415Z,38.26
2018-07-09T12:47:57.142Z,37.94
2018-07-09T12:52:00.631Z,38.57
2018-07-09T12:56:04.252Z,38.23
2018-07-09T13:00:07.660Z,37.05
2018-07-09T13:04:11.318Z,38.79
2018-07-09T13:08:14.830Z,37.40
2018-07-09T13:12:33.677Z,38.03
2018-07-09T13:16:37.166Z,39.10
2018-07-09T13:20:40.735Z,39.12
2018-07-09T13:24:44.242Z,37.42
2018-07-09T13:28:52.439Z,37.73
2018-07-09T13:32:55.857Z,37.25
2018-07-09T13:36:59.513Z,39.33
2018-07-09T13:41:03.419Z,38.50
2018-07-09T13:45:07.056Z,38.13
2018-07-09T13:49:10.707Z,38.46
2018-07-09T13:53:14.362Z,38.10
2018-07-09T13:57:17.958Z,38.63
2018-07-09T14:01:21.533Z,38.80
2018-07-09T14:05:25.019Z,38.17
2018-07-09T14:09:28.532Z,37.40
2018-07-09T14:13:32.145Z,36.73
2018-07-09T14:17:35.610Z,37.73
2018-07-09T14:21:39.799Z,37.28
2018-07-09T14:25:43.839Z,37.87
2018-07-09T14:29:47.418Z,38.07
2018-07-09T14:33:50.882Z,38.00
2018-07-09T14:37:54.636Z,38.47
2018-07-09T14:41:58.168Z,38.75
2018-07-09T14:46:01.674Z,37.49
2018-07-09T14:50:05.273Z,38.97
2018-07-09T14:54:09.091Z,37.89
2018-07-09T14:58:12.654Z,37.08
2018-07-09T15:02:16.163Z,36.26
2018-07-09T15:06:21.840Z,37.04
2018-07-09T15:10:25.447Z,38.23
2018-07-09T15:14:28.915Z,37.36
2018-07-09T15:18:32.457Z,39.03
2018-07-09T15:22:35.994Z,39.04
2018-07-09T15:26:39.525Z,37.78
2018-07-09T15:30:43.014Z,37.12
2018-07-09T15:34:46.553Z,37.18
2018-07-09T15:38:50.243Z,36.57
2018-07-09T15:42:53.751Z,35.41
2018-07-09T15:46:57.242Z,36.99
2018-07-09T15:51:00.806Z,36.93
2018-07-09T15:55:04.679Z,37.26
2018-07-09T15:59:08.466Z,37.61
2018-07-09T16:03:12.124Z,38.25
2018-07-09T16:07:15.698Z,38.33
2018-07-09T16:11:19.549Z,38.07
2018-07-09T16:15:23.075Z,38.68
2018-07-09T16:19:26.644Z,38.82
2018-07-09T16:23:30.204Z,38.18
2018-07-09T16:27:33.787Z,37.90
2018-07-09T16:31:37.307Z,37.29
2018-07-09T16:35:41.964Z,37.95
2018-07-09T16:39:45.540Z,38.35
2018-07-09T16:43:50.361Z,38.94
2018-07-09T16:47:53.867Z,39.69
2018-07-09T16:51:57.606Z,39.00
2018-07-09T16:56:01.086Z,38.26
2018-07-09T17:00:05.000Z,39.03
2018-07-09T17:04:08.480Z,39.58
2018-07-09T17:08:14.133Z,39.55
2018-07-09T17:12:17.565Z,39.71
2018-07-09T17:16:21.148Z,40.02
2018-07-09T17:20:24.628Z,39.78
2018-07-09T17:24:28.185Z,40.15
2018-07-09T17:28:32.018Z,40.53
2018-07-09T17:32:35.798Z,39.86
2018-07-09T17:36:39.790Z,39.66
2018-07-09T17:40:44.027Z,39.49
2018-07-09T17:44:47.879Z,39.68
2018-07-09T17:48:51.863Z,39.30
2018-07-09T17:52:55.773Z,39.44
2018-07-09T17:56:59.563Z,40.01
2018-07-09T18:01:02.994Z,39.00
2018-07-09T18:05:06.762Z,40.25
2018-07-09T18:09:10.249Z,39.23
2018-07-09T18:13:13.836Z,38.92
2018-07-09T18:17:17.288Z,38.73
2018-07-09T18:21:20.868Z,38.67
2018-07-09T18:25:24.430Z,39.41
2018-07-09T18:29:31.764Z,39.70
2018-07-09T18:33:35.333Z,38.80
2018-07-09T18:37:39.971Z,39.40
2018-07-09T18:41:43.491Z,38.90
2018-07-09T18:45:49.073Z,39.03
2018-07-09T18:49:52.583Z,39.21
2018-07-09T18:53:57.266Z,39.02
2018-07-09T18:58:00.832Z,39.62
2018-07-09T19:02:05.429Z,39.93
2018-07-09T19:06:17.419Z,40.01
2018-07-09T19:10:20.927Z,39.58
2018-07-09T19:14:26.222Z,39.44
2018-07-09T19:18:40.897Z,40.68
2018-07-09T19:22:43.162Z,40.46
2018-07-09T19:26:45.751Z,41.65
2018-07-09T19:30:48.038Z,42.54
2018-07-09T19:34:50.295Z,42.18
2018-07-09T19:38:52.810Z,42.84
2018-07-09T19:42:55.141Z,43.93
2018-07-09T19:46:57.622Z,43.39
2018-07-09T19:50:59.890Z,43.65
2018-07-09T19:55:02.155Z,44.87
2018-07-09T19:59:04.438Z,44.43
2018-07-09T20:03:07.487Z,44.12
2018-07-09T20:07:09.772Z,44.67
2018-07-09T20:11:17.301Z,45.32
2018-07-09T20:15:24.801Z,45.58
2018-07-09T20:19:28.086Z,45.63
2018-07-09T20:23:30.313Z,46.36
2018-07-09T20:45:53.241Z,47.12
2018-07-09T21:22:06.290Z,47.46
2018-07-09T21:26:09.569Z,47.57
2018-07-09T21:30:11.928Z,48.50
2018-07-09T21:34:14.586Z,48.24
2018-07-09T21:38:16.832Z,47.91
2018-07-09T21:42:19.113Z,48.57
2018-07-09T21:46:21.333Z,48.56
2018-07-09T21:50:23.572Z,48.56
2018-07-09T21:54:25.774Z,49.06
2018-07-09T21:58:27.987Z,48.12
2018-07-09T22:02:30.213Z,49.19
2018-07-09T22:06:32.445Z,49.33
2018-07-09T22:10:34.669Z,49.15
2018-07-09T22:14:36.856Z,48.39
2018-07-09T22:18:39.064Z,48.32
2018-07-09T22:22:41.267Z,48.35
2018-07-09T22:26:43.502Z,48.36
2018-07-09T22:30:46.883Z,48.77
2018-07-09T22:34:50.280Z,48.82
2018-07-09T22:38:53.656Z,48.30
2018-07-09T22:42:57.168Z,48.63
2018-07-09T22:47:00.612Z,49.00
2018-07-09T22:51:04.022Z,49.09
2018-07-09T22:55:18.539Z,48.36
2018-07-09T22:59:21.981Z,48.39
2018-07-09T23:03:26.001Z,48.38
2018-07-09T23:07:29.359Z,48.67
2018-07-09T23:11:52.611Z,49.39
2018-07-09T23:16:35.928Z,49.00
2018-07-09T23:22:45.283Z,48.56
2018-07-09T23:26:47.517Z,48.59
2018-07-09T23:30:49.732Z,48.68
2018-07-09T23:34:51.938Z,48.77
2018-07-09T23:38:54.328Z,49.73
2018-07-09T23:42:56.560Z,49.29
2018-07-09T23:46:58.793Z,49.62
2018-07-09T23:51:01.117Z,49.48
2018-07-09T23:55:03.317Z,49.62
